Aérodrome :
LOGIN :

S'inscrire | Disclaimer

   EN    FR    IT 

 










Légende :    VFR   VFR Marginal   IFR   IFR Intensif   IFR Très Intensif
Visi : 
Plafond : 
>= 8 km
>= 3000ft
5 à 8 km
1000 à 3000 ft
1500m à 5 km
500 à 1000 ft
800 à 1500m
200 à 500 ft
< 800m
< 200 ft
Symboles :   Orages  Brouillard  Fortes neiges  Fortes précipitations  Vent > 20 kt
SIGMETs :   Divers  Orages  Givrage  Turbulence  Onde Orograph.  Cendres Volcan.







- Altitude de l'aérodrome : 1299 ft


EDTY - Adolf Würth

DERNIER METAR :
  • 171050Z VRB04KT CAVOK 29/13 Q1015

METARs EXPIRÉS :
  • 171020Z VRB03KT CAVOK 29/13 Q1016
  • 170950Z VRB03KT CAVOK 29/12 Q1016
  • 170920Z VRB03KT CAVOK 28/13 Q1016
  • 170850Z VRB03KT CAVOK 27/13 Q1016
  • 170820Z 27004KT 240V300 CAVOK 26/13 Q1016

TAF TAF EDTY
Valide du 17 à 09h jusqu'au 17 à 18h UTC


170800Z 1709/1718 VRB03KT CAVOK
BECMG 1709/1711 23006KT
PROB30
TEMPO 1714/1718 32020G35KT TSRA SCT050CB
Pas de NOTAMs connus pour ce terrain.



MET'MAP, la Météo Aéronautique d'un coup d'oeil ! - Copyright ORBIFLY Décembre 2007 - Disclaimer

ORBIFLY MET'MAP TEAM :

Programmation & Développement : Alexandra Zaïnal
Conception & Développement : Baudouin d'Aumeries
Co-Programmation & Développement : Marc-Olivier Méhu
Soutien technique & logistique : Manuel Goepfert

Contact : metmap@orbifly.com




SOURCES & CREDITS :

   NOAA